Yuba County Airport Marysville US
ICAO: KMYV
IATA: MYV
Category: Medium
Scheduled Services: No

Elevation: 64 ft
TransAlt. 18000 ft.

Airport Communications:
NORCAL APP/DEP:125.4
ASOS:118.475
RANCHO RDO:122.6
CTAF/UNICOM:123.05

KMYV Zoom In..

If you have problems with the map follow the link
https://www.worldairports.se/pages/airport.php?
ICAO=KMYV

Runways:

(A) RW 05 length 3281 ft width 60 ft
---- / hdg 51

(B) RW 14 length 6006 ft width 150 ft
ILS 110.50 / hdg 141

(C) RW 23 length 3281 ft width 60 ft
---- / hdg 231

(D) RW 32 length 6006 ft width 150 ft
---- / hdg 321

Location; KMYV
Day. 07 / Time. 07.53 Zulu
* Altimeter: 29.97
* Temperature: 13° c. 55.4°f.
* Wind from: 160° Speed 16 kn with Gusts up to 23 kn.
Dewpoint: 12° c.
Visibility: 5 Statute Miles.
Clouds: Few 2000 ft.
Clouds: Scattered 3700 ft.
Clouds: Overcast 5000 ft.
Conditions: Light Rain.Conditions: Mist.

KMYV 070753Z AUTO 16016G23KT 5SM -RA BR FEW020 SCT037 OVC050 13/12 A2997 RMK AO2 SLP153 P0004 T01330117 401940083


Wind From 160°
Speed 16 kn.

 
 
jpsmedia worldairports.se 2019   terms of use